Rochdale Village, New York
Current Conditions -  °F | °C
As of 2:51 AM on Wednesday 26 Nov 2014 (Local Time) from KJFK Reporting Station
Overcast Overcast  
Wind Chill: 51°   Ceiling: 11000
Heat Index: 51°   Visibility: 10mi
Dew Point: 27°   Wind: 9mph
Humidity: 39%   Direction: 320°NW
Pressure: 30.22"   Gusts: NA
Location:  40.6565°N, 73.7829°W
Report Text: KJFK 260751Z 32008KT 10SM OVC110 11/M03 A3022 RMK AO2 SLP232 T01061028 $
Loading
Personal Weather Stations






























Interactive Weather Map New forecast layout! Learn more

10-Day Weather Forecast

Advertisements
Track Severe Weather on mobile